sensor_id;sensor_type;location;lat;lon;timestamp;pressure;altitude;pressure_sealevel;temperature;humidity
27840;BME280;15207;42.182;24.308;2023-04-26T00:00:42;98284.63;;;12.83;100.00
27840;BME280;15207;42.182;24.308;2023-04-26T00:03:08;98284.31;;;12.87;100.00
27840;BME280;15207;42.182;24.308;2023-04-26T00:05:34;98280.75;;;12.78;100.00
27840;BME280;15207;42.182;24.308;2023-04-26T00:08:01;98276.00;;;12.72;100.00
27840;BME280;15207;42.182;24.308;2023-04-26T00:10:28;98265.25;;;12.63;100.00
27840;BME280;15207;42.182;24.308;2023-04-26T00:12:54;98264.28;;;12.73;100.00
27840;BME280;15207;42.182;24.308;2023-04-26T00:15:19;98264.88;;;12.58;100.00
27840;BME280;15207;42.182;24.308;2023-04-26T00:17:45;98253.78;;;12.53;100.00
27840;BME280;15207;42.182;24.308;2023-04-26T00:20:11;98261.47;;;12.48;100.00
27840;BME280;15207;42.182;24.308;2023-04-26T00:22:38;98250.69;;;12.39;100.00
27840;BME280;15207;42.182;24.308;2023-04-26T00:25:04;98246.63;;;12.35;100.00
27840;BME280;15207;42.182;24.308;2023-04-26T00:27:30;98242.41;;;12.33;100.00
27840;BME280;15207;42.182;24.308;2023-04-26T00:29:56;98240.66;;;12.23;100.00
27840;BME280;15207;42.182;24.308;2023-04-26T00:32:21;98234.19;;;12.08;100.00
27840;BME280;15207;42.182;24.308;2023-04-26T00:34:47;98224.94;;;11.84;100.00
27840;BME280;15207;42.182;24.308;2023-04-26T00:37:12;98228.91;;;11.80;100.00
27840;BME280;15207;42.182;24.308;2023-04-26T00:39:38;98221.22;;;11.76;100.00
27840;BME280;15207;42.182;24.308;2023-04-26T00:42:03;98230.84;;;11.69;100.00
27840;BME280;15207;42.182;24.308;2023-04-26T00:44:29;98228.03;;;11.71;100.00
27840;BME280;15207;42.182;24.308;2023-04-26T00:46:54;98223.19;;;11.56;100.00
27840;BME280;15207;42.182;24.308;2023-04-26T00:49:22;98226.09;;;11.81;100.00
27840;BME280;15207;42.182;24.308;2023-04-26T00:51:48;98219.81;;;11.72;100.00
27840;BME280;15207;42.182;24.308;2023-04-26T00:54:15;98231.03;;;11.94;100.00
27840;BME280;15207;42.182;24.308;2023-04-26T00:56:41;98229.50;;;11.91;100.00
27840;BME280;15207;42.182;24.308;2023-04-26T00:59:07;98215.59;;;11.88;100.00
27840;BME280;15207;42.182;24.308;2023-04-26T01:01:33;98218.00;;;11.99;100.00
27840;BME280;15207;42.182;24.308;2023-04-26T01:03:59;98221.28;;;11.85;100.00
27840;BME280;15207;42.182;24.308;2023-04-26T01:06:32;98213.06;;;11.86;100.00
27840;BME280;15207;42.182;24.308;2023-04-26T01:09:02;98215.69;;;11.78;100.00
27840;BME280;15207;42.182;24.308;2023-04-26T01:11:34;98213.78;;;11.70;100.00
27840;BME280;15207;42.182;24.308;2023-04-26T01:14:01;98215.31;;;11.73;100.00
27840;BME280;15207;42.182;24.308;2023-04-26T01:16:27;98207.66;;;11.60;100.00
27840;BME280;15207;42.182;24.308;2023-04-26T01:18:53;98197.97;;;11.85;100.00
27840;BME280;15207;42.182;24.308;2023-04-26T01:21:23;98204.25;;;11.76;100.00
27840;BME280;15207;42.182;24.308;2023-04-26T01:23:49;98205.19;;;11.85;100.00
27840;BME280;15207;42.182;24.308;2023-04-26T01:26:15;98203.25;;;11.77;100.00
27840;BME280;15207;42.182;24.308;2023-04-26T01:28:41;98200.75;;;11.75;100.00
27840;BME280;15207;42.182;24.308;2023-04-26T01:31:07;98203.97;;;11.79;100.00
27840;BME280;15207;42.182;24.308;2023-04-26T01:33:32;98210.25;;;11.70;100.00
27840;BME280;15207;42.182;24.308;2023-04-26T01:35:58;98198.84;;;11.68;100.00
27840;BME280;15207;42.182;24.308;2023-04-26T01:38:23;98218.38;;;11.78;100.00
27840;BME280;15207;42.182;24.308;2023-04-26T01:40:48;98223.13;;;11.66;100.00
27840;BME280;15207;42.182;24.308;2023-04-26T01:43:14;98221.75;;;11.62;100.00
27840;BME280;15207;42.182;24.308;2023-04-26T01:45:45;98227.59;;;11.57;100.00
27840;BME280;15207;42.182;24.308;2023-04-26T01:48:11;98222.59;;;11.44;100.00
27840;BME280;15207;42.182;24.308;2023-04-26T01:50:37;98226.28;;;11.43;100.00
27840;BME280;15207;42.182;24.308;2023-04-26T01:53:02;98222.78;;;11.43;100.00
27840;BME280;15207;42.182;24.308;2023-04-26T01:55:28;98223.44;;;11.45;100.00
27840;BME280;15207;42.182;24.308;2023-04-26T01:57:53;98218.31;;;11.51;100.00
27840;BME280;15207;42.182;24.308;2023-04-26T02:00:19;98210.34;;;11.60;100.00
27840;BME280;15207;42.182;24.308;2023-04-26T02:02:44;98202.38;;;11.50;100.00
27840;BME280;15207;42.182;24.308;2023-04-26T02:05:10;98213.56;;;11.45;100.00
27840;BME280;15207;42.182;24.308;2023-04-26T02:07:36;98223.22;;;11.38;100.00
27840;BME280;15207;42.182;24.308;2023-04-26T02:10:02;98210.56;;;11.30;100.00
27840;BME280;15207;42.182;24.308;2023-04-26T02:12:27;98207.06;;;11.30;100.00
27840;BME280;15207;42.182;24.308;2023-04-26T02:14:53;98199.09;;;11.20;100.00
27840;BME280;15207;42.182;24.308;2023-04-26T02:17:18;98205.50;;;11.09;100.00
27840;BME280;15207;42.182;24.308;2023-04-26T02:19:45;98216.00;;;11.02;100.00
27840;BME280;15207;42.182;24.308;2023-04-26T02:22:11;98219.44;;;10.94;100.00
27840;BME280;15207;42.182;24.308;2023-04-26T02:24:37;98220.75;;;10.80;100.00
27840;BME280;15207;42.182;24.308;2023-04-26T02:27:03;98214.88;;;10.77;100.00
27840;BME280;15207;42.182;24.308;2023-04-26T02:29:29;98220.03;;;10.60;100.00
27840;BME280;15207;42.182;24.308;2023-04-26T02:31:57;98232.84;;;10.56;100.00
27840;BME280;15207;42.182;24.308;2023-04-26T02:34:22;98231.03;;;10.57;100.00
27840;BME280;15207;42.182;24.308;2023-04-26T02:36:47;98234.56;;;10.57;100.00
27840;BME280;15207;42.182;24.308;2023-04-26T02:39:13;98238.94;;;10.49;100.00
27840;BME280;15207;42.182;24.308;2023-04-26T02:41:38;98237.91;;;10.60;100.00
27840;BME280;15207;42.182;24.308;2023-04-26T02:44:04;98236.38;;;10.57;100.00
27840;BME280;15207;42.182;24.308;2023-04-26T02:46:29;98235.94;;;10.62;100.00
27840;BME280;15207;42.182;24.308;2023-04-26T02:48:55;98227.75;;;10.63;100.00
27840;BME280;15207;42.182;24.308;2023-04-26T02:51:21;98218.97;;;10.33;100.00
27840;BME280;15207;42.182;24.308;2023-04-26T02:53:47;98212.63;;;10.44;100.00
27840;BME280;15207;42.182;24.308;2023-04-26T02:56:12;98215.41;;;10.42;100.00
27840;BME280;15207;42.182;24.308;2023-04-26T02:58:38;98204.72;;;10.52;100.00
27840;BME280;15207;42.182;24.308;2023-04-26T03:01:03;98202.34;;;10.39;100.00
27840;BME280;15207;42.182;24.308;2023-04-26T03:03:29;98198.59;;;10.22;100.00
27840;BME280;15207;42.182;24.308;2023-04-26T03:05:55;98202.22;;;10.31;100.00
27840;BME280;15207;42.182;24.308;2023-04-26T03:08:20;98204.50;;;10.26;100.00
27840;BME280;15207;42.182;24.308;2023-04-26T03:10:46;98211.72;;;10.15;100.00
27840;BME280;15207;42.182;24.308;2023-04-26T03:13:11;98214.00;;;10.10;100.00
27840;BME280;15207;42.182;24.308;2023-04-26T03:15:37;98219.34;;;10.10;100.00
27840;BME280;15207;42.182;24.308;2023-04-26T03:18:02;98212.13;;;10.11;100.00
27840;BME280;15207;42.182;24.308;2023-04-26T03:20:28;98215.81;;;10.10;100.00
27840;BME280;15207;42.182;24.308;2023-04-26T03:22:54;98214.09;;;10.18;100.00
27840;BME280;15207;42.182;24.308;2023-04-26T03:25:20;98212.41;;;10.17;100.00
27840;BME280;15207;42.182;24.308;2023-04-26T03:27:45;98219.88;;;10.14;100.00
27840;BME280;15207;42.182;24.308;2023-04-26T03:30:11;98221.03;;;10.01;100.00
27840;BME280;15207;42.182;24.308;2023-04-26T03:32:37;98225.81;;;9.98;100.00
27840;BME280;15207;42.182;24.308;2023-04-26T03:35:03;98222.59;;;9.94;100.00
27840;BME280;15207;42.182;24.308;2023-04-26T03:37:28;98222.59;;;9.94;100.00
27840;BME280;15207;42.182;24.308;2023-04-26T03:39:54;98237.38;;;9.98;100.00
27840;BME280;15207;42.182;24.308;2023-04-26T03:42:20;98234.13;;;10.04;100.00
27840;BME280;15207;42.182;24.308;2023-04-26T03:44:45;98239.03;;;10.19;100.00
27840;BME280;15207;42.182;24.308;2023-04-26T03:47:11;98238.09;;;10.38;100.00
27840;BME280;15207;42.182;24.308;2023-04-26T03:49:36;98238.66;;;10.52;100.00
27840;BME280;15207;42.182;24.308;2023-04-26T03:52:02;98247.00;;;10.77;100.00
27840;BME280;15207;42.182;24.308;2023-04-26T03:54:28;98253.91;;;10.79;100.00
27840;BME280;15207;42.182;24.308;2023-04-26T03:56:53;98246.31;;;10.75;100.00
27840;BME280;15207;42.182;24.308;2023-04-26T03:59:19;98247.41;;;10.82;100.00
27840;BME280;15207;42.182;24.308;2023-04-26T04:01:45;98241.41;;;10.98;100.00
27840;BME280;15207;42.182;24.308;2023-04-26T04:04:10;98235.28;;;11.06;100.00
27840;BME280;15207;42.182;24.308;2023-04-26T04:06:36;98239.28;;;11.20;100.00
27840;BME280;15207;42.182;24.308;2023-04-26T04:09:03;98240.53;;;11.26;100.00
27840;BME280;15207;42.182;24.308;2023-04-26T04:11:30;98236.94;;;11.35;100.00
27840;BME280;15207;42.182;24.308;2023-04-26T04:13:55;98233.09;;;11.37;100.00
27840;BME280;15207;42.182;24.308;2023-04-26T04:16:21;98243.81;;;11.56;100.00
27840;BME280;15207;42.182;24.308;2023-04-26T04:18:46;98241.56;;;11.69;100.00
27840;BME280;15207;42.182;24.308;2023-04-26T04:21:12;98244.19;;;11.79;100.00
27840;BME280;15207;42.182;24.308;2023-04-26T04:23:37;98245.31;;;11.95;99.42
27840;BME280;15207;42.182;24.308;2023-04-26T04:26:03;98253.44;;;12.03;98.77
27840;BME280;15207;42.182;24.308;2023-04-26T04:28:28;98254.88;;;12.15;98.55
27840;BME280;15207;42.182;24.308;2023-04-26T04:30:54;98253.09;;;12.24;98.87
27840;BME280;15207;42.182;24.308;2023-04-26T04:33:21;98248.94;;;12.30;97.98
27840;BME280;15207;42.182;24.308;2023-04-26T04:35:46;98261.63;;;12.46;98.50
27840;BME280;15207;42.182;24.308;2023-04-26T04:38:12;98262.28;;;12.48;99.11
27840;BME280;15207;42.182;24.308;2023-04-26T04:40:38;98262.06;;;12.68;97.49
27840;BME280;15207;42.182;24.308;2023-04-26T04:43:04;98264.16;;;12.82;96.15
27840;BME280;15207;42.182;24.308;2023-04-26T04:45:29;98260.00;;;12.96;95.05
27840;BME280;15207;42.182;24.308;2023-04-26T04:47:55;98258.56;;;13.11;94.93
27840;BME280;15207;42.182;24.308;2023-04-26T04:50:20;98252.50;;;13.25;92.17
27840;BME280;15207;42.182;24.308;2023-04-26T04:52:47;98247.00;;;13.35;92.60
27840;BME280;15207;42.182;24.308;2023-04-26T04:55:13;98250.44;;;13.54;88.91
27840;BME280;15207;42.182;24.308;2023-04-26T04:57:38;98252.63;;;13.58;89.82
27840;BME280;15207;42.182;24.308;2023-04-26T05:00:05;98250.44;;;13.70;90.46
27840;BME280;15207;42.182;24.308;2023-04-26T05:02:37;98243.53;;;13.84;88.43
27840;BME280;15207;42.182;24.308;2023-04-26T05:05:04;98247.09;;;13.93;86.14
27840;BME280;15207;42.182;24.308;2023-04-26T05:07:33;98240.53;;;13.96;88.97
27840;BME280;15207;42.182;24.308;2023-04-26T05:09:58;98239.84;;;13.94;90.17
27840;BME280;15207;42.182;24.308;2023-04-26T05:12:24;98240.66;;;14.19;89.66
27840;BME280;15207;42.182;24.308;2023-04-26T05:14:50;98238.44;;;14.39;89.57
27840;BME280;15207;42.182;24.308;2023-04-26T05:17:15;98234.38;;;14.44;86.15
27840;BME280;15207;42.182;24.308;2023-04-26T05:19:41;98221.03;;;14.59;84.47
27840;BME280;15207;42.182;24.308;2023-04-26T05:22:06;98221.16;;;14.82;84.54
27840;BME280;15207;42.182;24.308;2023-04-26T05:24:32;98222.00;;;15.14;82.24
27840;BME280;15207;42.182;24.308;2023-04-26T05:26:58;98228.38;;;15.45;83.20
27840;BME280;15207;42.182;24.308;2023-04-26T05:29:28;98223.41;;;15.57;84.28
27840;BME280;15207;42.182;24.308;2023-04-26T05:31:54;98218.22;;;15.70;82.94
27840;BME280;15207;42.182;24.308;2023-04-26T05:34:20;98234.53;;;15.77;81.29
27840;BME280;15207;42.182;24.308;2023-04-26T05:36:47;98242.81;;;15.76;80.05
27840;BME280;15207;42.182;24.308;2023-04-26T05:39:13;98237.72;;;15.81;80.63
27840;BME280;15207;42.182;24.308;2023-04-26T05:41:38;98237.78;;;15.72;80.51
27840;BME280;15207;42.182;24.308;2023-04-26T05:44:04;98240.78;;;15.78;79.64
27840;BME280;15207;42.182;24.308;2023-04-26T05:46:29;98241.00;;;15.68;81.20
27840;BME280;15207;42.182;24.308;2023-04-26T05:48:55;98245.22;;;15.70;80.74
27840;BME280;15207;42.182;24.308;2023-04-26T05:51:21;98237.06;;;15.55;81.32
27840;BME280;15207;42.182;24.308;2023-04-26T05:53:46;98239.53;;;15.42;79.14
27840;BME280;15207;42.182;24.308;2023-04-26T05:56:12;98237.59;;;15.27;79.15
27840;BME280;15207;42.182;24.308;2023-04-26T05:58:37;98238.78;;;15.25;81.08
27840;BME280;15207;42.182;24.308;2023-04-26T06:01:03;98236.22;;;15.31;80.15
27840;BME280;15207;42.182;24.308;2023-04-26T06:03:30;98236.66;;;15.43;80.65
27840;BME280;15207;42.182;24.308;2023-04-26T06:05:56;98229.88;;;15.47;80.87
27840;BME280;15207;42.182;24.308;2023-04-26T06:08:21;98236.91;;;15.57;80.79
27840;BME280;15207;42.182;24.308;2023-04-26T06:10:47;98245.22;;;15.47;76.24
27840;BME280;15207;42.182;24.308;2023-04-26T06:13:12;98230.66;;;15.33;78.48
27840;BME280;15207;42.182;24.308;2023-04-26T06:15:38;98235.63;;;15.13;80.08
27840;BME280;15207;42.182;24.308;2023-04-26T06:18:04;98244.38;;;14.83;77.30
27840;BME280;15207;42.182;24.308;2023-04-26T06:20:30;98227.72;;;14.71;77.94
27840;BME280;15207;42.182;24.308;2023-04-26T06:22:56;98227.94;;;14.61;82.13
27840;BME280;15207;42.182;24.308;2023-04-26T06:25:21;98233.13;;;14.71;78.72
27840;BME280;15207;42.182;24.308;2023-04-26T06:27:47;98226.84;;;14.87;81.51
27840;BME280;15207;42.182;24.308;2023-04-26T06:30:13;98228.28;;;15.06;79.89
27840;BME280;15207;42.182;24.308;2023-04-26T06:32:40;98227.75;;;15.11;77.37
27840;BME280;15207;42.182;24.308;2023-04-26T06:35:06;98228.00;;;15.48;81.00
27840;BME280;15207;42.182;24.308;2023-04-26T06:37:32;98221.91;;;15.78;77.48
27840;BME280;15207;42.182;24.308;2023-04-26T06:39:57;98222.09;;;15.91;73.08
27840;BME280;15207;42.182;24.308;2023-04-26T06:42:23;98213.06;;;16.07;72.65
27840;BME280;15207;42.182;24.308;2023-04-26T06:44:48;98215.75;;;16.07;72.74
27840;BME280;15207;42.182;24.308;2023-04-26T06:47:14;98219.41;;;15.91;74.02
27840;BME280;15207;42.182;24.308;2023-04-26T06:49:39;98214.38;;;15.88;71.56
27840;BME280;15207;42.182;24.308;2023-04-26T06:52:05;98222.06;;;15.99;74.60
27840;BME280;15207;42.182;24.308;2023-04-26T06:54:31;98210.47;;;15.91;73.72
27840;BME280;15207;42.182;24.308;2023-04-26T06:56:56;98211.50;;;15.90;72.76
27840;BME280;15207;42.182;24.308;2023-04-26T06:59:22;98223.81;;;15.92;70.90
27840;BME280;15207;42.182;24.308;2023-04-26T07:01:48;98222.00;;;15.61;65.63
27840;BME280;15207;42.182;24.308;2023-04-26T07:04:13;98235.94;;;15.50;68.81
27840;BME280;15207;42.182;24.308;2023-04-26T07:06:39;98232.44;;;15.64;72.67
27840;BME280;15207;42.182;24.308;2023-04-26T07:09:05;98235.44;;;15.69;69.49
27840;BME280;15207;42.182;24.308;2023-04-26T07:11:32;98240.91;;;15.84;70.04
27840;BME280;15207;42.182;24.308;2023-04-26T07:13:57;98239.50;;;16.12;69.36
27840;BME280;15207;42.182;24.308;2023-04-26T07:16:23;98231.94;;;16.07;65.47
27840;BME280;15207;42.182;24.308;2023-04-26T07:18:48;98233.81;;;16.07;66.02
27840;BME280;15207;42.182;24.308;2023-04-26T07:21:15;98226.69;;;16.29;68.68
27840;BME280;15207;42.182;24.308;2023-04-26T07:23:40;98228.84;;;16.64;67.38
27840;BME280;15207;42.182;24.308;2023-04-26T07:26:09;98229.19;;;16.76;65.93
27840;BME280;15207;42.182;24.308;2023-04-26T07:28:34;98220.13;;;17.14;61.64
27840;BME280;15207;42.182;24.308;2023-04-26T07:31:00;98224.22;;;17.25;62.09
27840;BME280;15207;42.182;24.308;2023-04-26T07:33:26;98216.84;;;17.18;56.93
27840;BME280;15207;42.182;24.308;2023-04-26T07:35:58;98216.81;;;17.55;61.41
27840;BME280;15207;42.182;24.308;2023-04-26T07:38:25;98213.06;;;17.78;60.94
27840;BME280;15207;42.182;24.308;2023-04-26T07:40:51;98220.06;;;17.94;56.84
27840;BME280;15207;42.182;24.308;2023-04-26T07:43:20;98215.09;;;18.20;57.83
27840;BME280;15207;42.182;24.308;2023-04-26T07:45:46;98226.50;;;18.44;55.51
27840;BME280;15207;42.182;24.308;2023-04-26T07:48:11;98213.19;;;18.49;55.50
27840;BME280;15207;42.182;24.308;2023-04-26T07:50:38;98221.94;;;18.51;51.95
27840;BME280;15207;42.182;24.308;2023-04-26T07:53:04;98226.19;;;18.60;54.09
27840;BME280;15207;42.182;24.308;2023-04-26T07:55:30;98219.72;;;18.61;53.89
27840;BME280;15207;42.182;24.308;2023-04-26T07:57:55;98229.88;;;18.53;54.91
27840;BME280;15207;42.182;24.308;2023-04-26T08:00:22;98229.88;;;18.53;55.82
27840;BME280;15207;42.182;24.308;2023-04-26T08:02:47;98219.66;;;18.55;53.64
27840;BME280;15207;42.182;24.308;2023-04-26T08:05:14;98220.13;;;18.23;53.11
27840;BME280;15207;42.182;24.308;2023-04-26T08:07:41;98224.31;;;18.32;55.62
27840;BME280;15207;42.182;24.308;2023-04-26T08:10:08;98222.13;;;18.43;53.47
27840;BME280;15207;42.182;24.308;2023-04-26T08:12:35;98221.72;;;18.46;53.97
27840;BME280;15207;42.182;24.308;2023-04-26T08:15:03;98214.28;;;18.26;50.61
27840;BME280;15207;42.182;24.308;2023-04-26T08:17:30;98207.53;;;18.44;55.18
27840;BME280;15207;42.182;24.308;2023-04-26T08:19:56;98217.41;;;18.58;51.43
27840;BME280;15207;42.182;24.308;2023-04-26T08:22:22;98209.84;;;18.89;52.36
27840;BME280;15207;42.182;24.308;2023-04-26T08:24:49;98210.81;;;19.23;52.05
27840;BME280;15207;42.182;24.308;2023-04-26T08:27:16;98199.81;;;19.38;49.26
27840;BME280;15207;42.182;24.308;2023-04-26T08:29:43;98196.88;;;19.33;47.72
27840;BME280;15207;42.182;24.308;2023-04-26T08:32:09;98193.13;;;19.48;49.62
27840;BME280;15207;42.182;24.308;2023-04-26T08:34:34;98196.47;;;19.50;48.30
27840;BME280;15207;42.182;24.308;2023-04-26T08:37:00;98197.94;;;19.52;47.17
27840;BME280;15207;42.182;24.308;2023-04-26T08:39:26;98195.41;;;19.37;48.91
27840;BME280;15207;42.182;24.308;2023-04-26T08:41:59;98192.91;;;19.42;47.95
27840;BME280;15207;42.182;24.308;2023-04-26T08:44:31;98197.50;;;19.35;48.76
27840;BME280;15207;42.182;24.308;2023-04-26T08:49:39;98200.59;;;19.32;47.56
27840;BME280;15207;42.182;24.308;2023-04-26T08:52:10;98199.31;;;19.08;46.77
27840;BME280;15207;42.182;24.308;2023-04-26T08:54:37;98192.47;;;18.76;46.61
27840;BME280;15207;42.182;24.308;2023-04-26T08:57:03;98190.91;;;18.54;48.32
27840;BME280;15207;42.182;24.308;2023-04-26T08:59:35;98194.53;;;18.74;48.56
27840;BME280;15207;42.182;24.308;2023-04-26T09:02:04;98189.25;;;19.01;46.21
27840;BME280;15207;42.182;24.308;2023-04-26T09:04:30;98199.59;;;18.84;47.02
27840;BME280;15207;42.182;24.308;2023-04-26T09:06:59;98201.84;;;18.74;47.39
27840;BME280;15207;42.182;24.308;2023-04-26T09:09:27;98192.91;;;18.80;45.41
27840;BME280;15207;42.182;24.308;2023-04-26T09:14:18;98200.16;;;18.31;48.21
27840;BME280;15207;42.182;24.308;2023-04-26T09:16:44;98200.25;;;18.51;48.72
27840;BME280;15207;42.182;24.308;2023-04-26T09:19:09;98200.75;;;18.61;46.47
27840;BME280;15207;42.182;24.308;2023-04-26T09:21:42;98207.25;;;18.67;46.71
27840;BME280;15207;42.182;24.308;2023-04-26T09:24:09;98203.63;;;18.95;46.16
27840;BME280;15207;42.182;24.308;2023-04-26T09:26:35;98211.50;;;18.90;46.29
27840;BME280;15207;42.182;24.308;2023-04-26T09:29:15;98212.50;;;18.75;43.37
27840;BME280;15207;42.182;24.308;2023-04-26T09:31:46;98218.25;;;18.59;47.65
27840;BME280;15207;42.182;24.308;2023-04-26T09:34:13;98216.22;;;18.68;46.68
27840;BME280;15207;42.182;24.308;2023-04-26T09:36:49;98218.59;;;18.84;49.29
27840;BME280;15207;42.182;24.308;2023-04-26T09:39:38;98207.50;;;19.28;48.67
27840;BME280;15207;42.182;24.308;2023-04-26T09:42:05;98199.00;;;19.51;48.64
27840;BME280;15207;42.182;24.308;2023-04-26T09:44:31;98209.47;;;19.75;47.39
27840;BME280;15207;42.182;24.308;2023-04-26T09:49:31;98206.31;;;19.78;46.72
27840;BME280;15207;42.182;24.308;2023-04-26T09:52:04;98202.78;;;19.98;46.79
27840;BME280;15207;42.182;24.308;2023-04-26T09:57:12;98203.44;;;20.00;47.27
27840;BME280;15207;42.182;24.308;2023-04-26T09:59:43;98205.28;;;19.92;45.60
27840;BME280;15207;42.182;24.308;2023-04-26T10:02:13;98200.28;;;20.03;47.28
27840;BME280;15207;42.182;24.308;2023-04-26T10:04:41;98203.22;;;20.01;46.27
27840;BME280;15207;42.182;24.308;2023-04-26T10:07:09;98197.16;;;19.86;46.68
27840;BME280;15207;42.182;24.308;2023-04-26T10:09:34;98194.84;;;19.76;47.18
27840;BME280;15207;42.182;24.308;2023-04-26T10:12:00;98188.75;;;19.60;49.08
27840;BME280;15207;42.182;24.308;2023-04-26T10:14:28;98190.00;;;19.51;51.12
27840;BME280;15207;42.182;24.308;2023-04-26T10:16:54;98181.84;;;19.51;48.06
27840;BME280;15207;42.182;24.308;2023-04-26T10:19:21;98181.84;;;19.44;46.95
27840;BME280;15207;42.182;24.308;2023-04-26T10:21:48;98184.94;;;19.27;48.57
27840;BME280;15207;42.182;24.308;2023-04-26T10:24:16;98180.94;;;19.10;47.87
27840;BME280;15207;42.182;24.308;2023-04-26T10:26:51;98181.31;;;19.00;46.94
27840;BME280;15207;42.182;24.308;2023-04-26T10:29:23;98170.06;;;19.03;47.83
27840;BME280;15207;42.182;24.308;2023-04-26T10:34:32;98164.09;;;18.72;45.73
27840;BME280;15207;42.182;24.308;2023-04-26T10:37:14;98176.84;;;18.79;45.06
27840;BME280;15207;42.182;24.308;2023-04-26T10:39:44;98174.31;;;18.70;46.30
27840;BME280;15207;42.182;24.308;2023-04-26T10:45:22;98164.59;;;18.47;46.93
27840;BME280;15207;42.182;24.308;2023-04-26T10:47:46;98169.41;;;18.52;44.71
27840;BME280;15207;42.182;24.308;2023-04-26T10:50:11;98166.47;;;18.47;44.12
27840;BME280;15207;42.182;24.308;2023-04-26T10:53:03;98160.47;;;18.52;44.71
27840;BME280;15207;42.182;24.308;2023-04-26T10:55:40;98171.31;;;18.52;43.61
27840;BME280;15207;42.182;24.308;2023-04-26T10:58:28;98164.66;;;18.54;45.29
27840;BME280;15207;42.182;24.308;2023-04-26T11:03:43;98171.75;;;18.62;43.50
27840;BME280;15207;42.182;24.308;2023-04-26T11:06:26;98159.34;;;18.39;44.24
27840;BME280;15207;42.182;24.308;2023-04-26T11:12:13;98179.56;;;17.57;45.37
27840;BME280;15207;42.182;24.308;2023-04-26T11:14:42;98174.22;;;17.21;45.24
27840;BME280;15207;42.182;24.308;2023-04-26T11:17:08;98178.28;;;16.95;45.05
27840;BME280;15207;42.182;24.308;2023-04-26T11:19:35;98178.72;;;16.98;46.91
27840;BME280;15207;42.182;24.308;2023-04-26T11:22:02;98180.59;;;17.13;45.54
27840;BME280;15207;42.182;24.308;2023-04-26T11:24:32;98180.38;;;17.14;45.38
27840;BME280;15207;42.182;24.308;2023-04-26T11:26:58;98174.03;;;17.22;44.81
27840;BME280;15207;42.182;24.308;2023-04-26T11:29:24;98181.34;;;17.07;45.33
27840;BME280;15207;42.182;24.308;2023-04-26T11:31:56;98176.59;;;16.93;45.07
27840;BME280;15207;42.182;24.308;2023-04-26T11:36:58;98180.66;;;17.41;43.97
27840;BME280;15207;42.182;24.308;2023-04-26T11:39:24;98177.00;;;17.49;43.02
27840;BME280;15207;42.182;24.308;2023-04-26T11:41:50;98171.06;;;17.39;43.25
27840;BME280;15207;42.182;24.308;2023-04-26T11:44:20;98176.22;;;17.55;43.25
27840;BME280;15207;42.182;24.308;2023-04-26T11:46:47;98179.56;;;17.57;42.35
27840;BME280;15207;42.182;24.308;2023-04-26T11:49:14;98168.66;;;17.73;42.50
27840;BME280;15207;42.182;24.308;2023-04-26T11:51:40;98149.84;;;17.64;42.09
27840;BME280;15207;42.182;24.308;2023-04-26T11:54:06;98162.50;;;17.85;42.16
27840;BME280;15207;42.182;24.308;2023-04-26T11:56:32;98165.63;;;17.82;43.09
27840;BME280;15207;42.182;24.308;2023-04-26T11:58:58;98160.22;;;17.82;41.77
27840;BME280;15207;42.182;24.308;2023-04-26T12:01:28;98159.78;;;18.07;41.04
27840;BME280;15207;42.182;24.308;2023-04-26T12:03:56;98154.88;;;17.96;41.12
27840;BME280;15207;42.182;24.308;2023-04-26T12:06:29;98161.94;;;17.90;42.50
27840;BME280;15207;42.182;24.308;2023-04-26T12:08:55;98163.44;;;17.71;41.54
27840;BME280;15207;42.182;24.308;2023-04-26T12:11:21;98166.75;;;17.66;42.72
27840;BME280;15207;42.182;24.308;2023-04-26T12:13:47;98153.94;;;17.53;42.32
27840;BME280;15207;42.182;24.308;2023-04-26T12:16:14;98167.06;;;17.35;45.18
27840;BME280;15207;42.182;24.308;2023-04-26T12:18:40;98165.69;;;17.24;46.59
27840;BME280;15207;42.182;24.308;2023-04-26T12:21:06;98169.97;;;17.11;46.95
27840;BME280;15207;42.182;24.308;2023-04-26T12:23:37;98164.63;;;17.18;47.01
27840;BME280;15207;42.182;24.308;2023-04-26T12:26:03;98164.03;;;17.23;48.08
27840;BME280;15207;42.182;24.308;2023-04-26T12:28:30;98172.94;;;17.38;47.56
27840;BME280;15207;42.182;24.308;2023-04-26T12:30:56;98164.22;;;17.21;45.88
27840;BME280;15207;42.182;24.308;2023-04-26T12:33:22;98159.22;;;17.18;47.19
27840;BME280;15207;42.182;24.308;2023-04-26T12:35:49;98158.22;;;17.04;49.34
27840;BME280;15207;42.182;24.308;2023-04-26T12:38:17;98160.38;;;17.09;48.91
27840;BME280;15207;42.182;24.308;2023-04-26T12:40:43;98169.22;;;17.02;47.73
27840;BME280;15207;42.182;24.308;2023-04-26T12:43:09;98169.22;;;17.02;47.79
27840;BME280;15207;42.182;24.308;2023-04-26T12:45:35;98158.78;;;16.99;47.35
27840;BME280;15207;42.182;24.308;2023-04-26T12:48:02;98160.88;;;16.82;46.90
27840;BME280;15207;42.182;24.308;2023-04-26T12:50:28;98161.63;;;16.61;46.81
27840;BME280;15207;42.182;24.308;2023-04-26T12:52:54;98170.53;;;16.39;47.92
27840;BME280;15207;42.182;24.308;2023-04-26T12:55:21;98171.34;;;16.40;47.89
27840;BME280;15207;42.182;24.308;2023-04-26T12:57:47;98178.34;;;16.19;47.55
27840;BME280;15207;42.182;24.308;2023-04-26T13:00:14;98171.50;;;16.08;48.15
27840;BME280;15207;42.182;24.308;2023-04-26T13:02:41;98168.47;;;15.96;48.79
27840;BME280;15207;42.182;24.308;2023-04-26T13:05:08;98168.53;;;16.03;50.28
27840;BME280;15207;42.182;24.308;2023-04-26T13:07:35;98167.31;;;16.06;49.85
27840;BME280;15207;42.182;24.308;2023-04-26T13:10:02;98174.13;;;16.17;51.33